Time;durP1;ratioP1;P1;durP2;ratioP2;P2;SDS_P1;SDS_P2;PMS_P1;PMS_P2;Temp;Humidity;BMP_temperature;BMP_pressure;BME280_temperature;BME280_humidity;BME280_pressure;Samples;Min_cycle;Max_cycle;Signal;HPM_P1;HPM_P2
2022/01/17 00:00:20;;;;;;;;;31.00;26.50;;;;;;;;5075259;27;45687;-74
2022/01/17 00:02:47;;;;;;;;;35.00;33.50;;;;;;;;5059253;28;45785;-75
2022/01/17 00:05:12;;;;;;;;;35.75;29.00;;;;;;;;5078597;28;45517;-74
2022/01/17 00:07:37;;;;;;;;;34.00;30.25;;;;;;;;5076650;27;47158;-75
2022/01/17 00:10:04;;;;;;;;;35.00;30.25;;;;;;;;5076693;28;45390;-74
2022/01/17 00:12:32;;;;;;;;;32.50;29.75;;;;;;;;5074581;27;45462;-74
2022/01/17 00:14:57;;;;;;;;;35.00;30.00;;;;;;;;5074119;27;46273;-75
2022/01/17 00:17:36;;;;;;;;;29.50;29.25;;;;;;;;5073168;27;45362;-74
2022/01/17 00:20:10;;;;;;;;;31.25;27.00;;;;;;;;5059800;28;45526;-75
2022/01/17 00:22:35;;;;;;;;;28.75;28.75;;;;;;;;5074986;27;45217;-75
2022/01/17 00:25:01;;;;;;;;;32.75;29.50;;;;;;;;5073945;27;45427;-75
2022/01/17 00:27:26;;;;;;;;;31.00;27.50;;;;;;;;5074528;28;45505;-74
2022/01/17 00:29:51;;;;;;;;;34.00;29.50;;;;;;;;5074161;28;45424;-73
2022/01/17 00:32:16;;;;;;;;;37.25;33.50;;;;;;;;5074375;27;45472;-74
2022/01/17 00:34:42;;;;;;;;;34.00;30.50;;;;;;;;5074491;28;46048;-75
2022/01/17 00:37:07;;;;;;;;;35.25;29.25;;;;;;;;5076427;27;45455;-75
2022/01/17 00:39:32;;;;;;;;;33.75;30.75;;;;;;;;5074510;28;45300;-74
2022/01/17 00:41:57;;;;;;;;;30.00;27.25;;;;;;;;5074327;28;45513;-74
2022/01/17 00:44:23;;;;;;;;;29.50;21.00;;;;;;;;5073597;28;46332;-74
2022/01/17 00:46:49;;;;;;;;;32.00;29.50;;;;;;;;5056535;28;45622;-74
2022/01/17 00:49:15;;;;;;;;;31.75;29.50;;;;;;;;5075652;28;45371;-74
2022/01/17 00:51:40;;;;;;;;;28.00;28.00;;;;;;;;5073898;28;45654;-75
2022/01/17 00:54:05;;;;;;;;;29.00;24.75;;;;;;;;5074094;27;46265;-75
2022/01/17 00:56:30;;;;;;;;;33.00;29.00;;;;;;;;5072351;28;45717;-75
2022/01/17 00:58:56;;;;;;;;;37.00;30.75;;;;;;;;5072364;27;45582;-76
2022/01/17 01:01:21;;;;;;;;;32.00;28.75;;;;;;;;5075608;27;45440;-76
2022/01/17 01:03:46;;;;;;;;;35.25;31.25;;;;;;;;5074307;28;48817;-75
2022/01/17 01:06:12;;;;;;;;;33.75;28.50;;;;;;;;5073639;28;45487;-75
2022/01/17 01:08:37;;;;;;;;;36.00;30.25;;;;;;;;5073860;27;45580;-76
2022/01/17 01:11:02;;;;;;;;;37.25;32.00;;;;;;;;5056792;28;45540;-76
2022/01/17 01:13:30;;;;;;;;;39.50;31.75;;;;;;;;5056822;28;46352;-76
2022/01/17 01:18:39;;;;;;;;;33.00;31.25;;;;;;;;5073649;28;45284;-76
2022/01/17 01:21:42;;;;;;;;;37.25;32.50;;;;;;;;5073515;27;45355;-76
2022/01/17 01:29:27;;;;;;;;;32.25;25.00;;;;;;;;5073211;28;45515;-75
2022/01/17 01:31:57;;;;;;;;;35.50;32.25;;;;;;;;5073673;28;45410;-76
2022/01/17 01:34:32;;;;;;;;;35.25;32.25;;;;;;;;5074955;28;46151;-76
2022/01/17 01:36:58;;;;;;;;;38.00;34.00;;;;;;;;5072761;27;45460;-76
2022/01/17 01:39:24;;;;;;;;;37.00;33.25;;;;;;;;5071928;27;45327;-76
2022/01/17 01:41:50;;;;;;;;;35.25;29.50;;;;;;;;5072960;28;45240;-75
2022/01/17 01:44:16;;;;;;;;;33.25;29.25;;;;;;;;5073207;28;45299;-76
2022/01/17 01:46:43;;;;;;;;;33.00;28.25;;;;;;;;5073425;28;45476;-76
2022/01/17 01:49:08;;;;;;;;;37.00;33.00;;;;;;;;5075212;28;45310;-74
2022/01/17 01:51:34;;;;;;;;;37.25;31.50;;;;;;;;5074618;27;45402;-73
2022/01/17 01:53:59;;;;;;;;;38.00;32.25;;;;;;;;5073511;28;46205;-75
2022/01/17 01:56:24;;;;;;;;;33.25;30.00;;;;;;;;5054617;28;45414;-75
2022/01/17 01:58:49;;;;;;;;;38.25;33.50;;;;;;;;5075554;27;45275;-75
2022/01/17 02:01:14;;;;;;;;;37.25;31.75;;;;;;;;5078715;27;45241;-75
2022/01/17 02:03:40;;;;;;;;;32.25;26.50;;;;;;;;5076858;27;46048;-75
2022/01/17 02:06:05;;;;;;;;;36.50;33.00;;;;;;;;5076636;27;45219;-75
2022/01/17 02:08:30;;;;;;;;;41.25;33.00;;;;;;;;5076696;27;45476;-75
2022/01/17 02:10:56;;;;;;;;;33.50;33.00;;;;;;;;5076568;27;45315;-75
2022/01/17 02:13:21;;;;;;;;;35.25;32.00;;;;;;;;5078094;27;46069;-75
2022/01/17 02:15:47;;;;;;;;;36.75;31.75;;;;;;;;5075418;27;45444;-75
2022/01/17 02:18:19;;;;;;;;;39.00;32.50;;;;;;;;5075040;27;45423;-74
2022/01/17 02:20:58;;;;;;;;;32.50;31.25;;;;;;;;5076312;27;45308;-75
2022/01/17 02:23:23;;;;;;;;;37.25;28.75;;;;;;;;5076482;27;47027;-74
2022/01/17 02:25:49;;;;;;;;;34.50;32.00;;;;;;;;5076663;27;45377;-74
2022/01/17 02:28:15;;;;;;;;;37.25;31.75;;;;;;;;5060319;28;45367;-75
2022/01/17 02:30:40;;;;;;;;;33.50;32.50;;;;;;;;5076384;27;45346;-74
2022/01/17 02:33:06;;;;;;;;;39.00;33.00;;;;;;;;5076198;27;46120;-75
2022/01/17 02:35:31;;;;;;;;;44.50;34.75;;;;;;;;5076325;27;45457;-75
2022/01/17 02:37:57;;;;;;;;;31.75;29.25;;;;;;;;5076690;27;45387;-75
2022/01/17 02:40:23;;;;;;;;;37.75;31.25;;;;;;;;5077266;27;45458;-76
2022/01/17 02:42:57;;;;;;;;;34.75;28.50;;;;;;;;5076443;27;45472;-76
2022/01/17 02:46:24;;;;;;;;;43.50;37.25;;;;;;;;5076242;27;45475;-76
2022/01/17 02:48:22;;;;;;;;;33.50;27.25;;;;;;;;5075999;27;45412;-75
2022/01/17 02:50:47;;;;;;;;;44.75;35.25;;;;;;;;5076121;27;45213;-76
2022/01/17 02:53:13;;;;;;;;;33.00;32.25;;;;;;;;5074670;28;46275;-75
2022/01/17 02:55:39;;;;;;;;;29.25;22.75;;;;;;;;5076047;27;45444;-76
2022/01/17 02:58:04;;;;;;;;;47.00;37.25;;;;;;;;5076590;27;45265;-76
2022/01/17 03:00:30;;;;;;;;;31.00;24.75;;;;;;;;5075922;28;45360;-75
2022/01/17 03:02:55;;;;;;;;;37.00;32.50;;;;;;;;5075962;27;45619;-76
2022/01/17 03:05:21;;;;;;;;;36.25;33.50;;;;;;;;5075957;27;45431;-76
2022/01/17 03:07:47;;;;;;;;;34.75;33.00;;;;;;;;5076169;28;45447;-76
2022/01/17 03:10:45;;;;;;;;;38.75;32.25;;;;;;;;5076891;27;45458;-75
2022/01/17 03:13:09;;;;;;;;;35.25;33.50;;;;;;;;5072626;28;46562;-75
2022/01/17 03:15:34;;;;;;;;;36.25;32.25;;;;;;;;5075470;27;45384;-75
2022/01/17 03:18:00;;;;;;;;;42.25;36.25;;;;;;;;5075448;27;45492;-75
2022/01/17 03:20:25;;;;;;;;;31.75;30.25;;;;;;;;5075299;27;45523;-75
2022/01/17 03:22:50;;;;;;;;;40.25;33.75;;;;;;;;5075700;27;46932;-75
2022/01/17 03:25:15;;;;;;;;;39.25;34.25;;;;;;;;5072753;28;45359;-75
2022/01/17 03:27:41;;;;;;;;;32.75;31.50;;;;;;;;5075280;27;45233;-75
2022/01/17 03:30:06;;;;;;;;;40.25;30.25;;;;;;;;5075229;27;45518;-75
2022/01/17 03:32:31;;;;;;;;;45.25;36.00;;;;;;;;5073464;28;46630;-75
2022/01/17 03:34:57;;;;;;;;;44.50;38.00;;;;;;;;5073788;27;45344;-75
2022/01/17 03:37:22;;;;;;;;;55.75;43.25;;;;;;;;5076907;27;45481;-74
2022/01/17 03:39:47;;;;;;;;;68.50;53.50;;;;;;;;5075800;27;45283;-74
2022/01/17 03:42:13;;;;;;;;;85.67;66.67;;;;;;;;5075172;27;45448;-74
2022/01/17 03:44:39;;;;;;;;;85.00;65.67;;;;;;;;5075567;27;45481;-75
2022/01/17 03:47:04;;;;;;;;;76.33;59.33;;;;;;;;5078447;28;45310;-75
2022/01/17 03:49:29;;;;;;;;;76.00;58.33;;;;;;;;5076068;28;45458;-74
2022/01/17 03:51:54;;;;;;;;;75.00;57.33;;;;;;;;5075704;27;46063;-75
2022/01/17 03:54:20;;;;;;;;;78.67;61.00;;;;;;;;5074238;27;45421;-75
2022/01/17 03:56:45;;;;;;;;;73.00;57.00;;;;;;;;5074826;27;45382;-75
2022/01/17 03:59:11;;;;;;;;;66.00;54.00;;;;;;;;5074125;27;45478;-76
2022/01/17 04:01:37;;;;;;;;;64.50;50.50;;;;;;;;5074787;27;46266;-75
2022/01/17 04:04:02;;;;;;;;;61.50;49.25;;;;;;;;5076843;27;45363;-75
2022/01/17 04:06:27;;;;;;;;;62.75;47.75;;;;;;;;5075048;27;45393;-75
2022/01/17 04:08:53;;;;;;;;;62.00;48.25;;;;;;;;5074336;28;45470;-75
2022/01/17 04:11:18;;;;;;;;;59.25;48.25;;;;;;;;5072884;27;47834;-75
2022/01/17 04:13:43;;;;;;;;;53.50;43.75;;;;;;;;5074171;28;45421;-75
2022/01/17 04:16:11;;;;;;;;;57.25;46.75;;;;;;;;5075781;27;45451;-75
2022/01/17 04:18:36;;;;;;;;;55.75;45.75;;;;;;;;5074264;27;45555;-75
2022/01/17 04:21:03;;;;;;;;;55.75;45.50;;;;;;;;5073342;27;45392;-75
2022/01/17 04:23:28;;;;;;;;;51.00;42.25;;;;;;;;5074214;27;45529;-75
2022/01/17 04:25:54;;;;;;;;;55.25;43.75;;;;;;;;5074375;27;45489;-75
2022/01/17 04:28:19;;;;;;;;;58.00;44.75;;;;;;;;5076121;28;45477;-75
2022/01/17 04:30:44;;;;;;;;;56.25;44.00;;;;;;;;5074019;27;46859;-75
2022/01/17 04:33:10;;;;;;;;;50.00;42.00;;;;;;;;5074136;28;45721;-75
2022/01/17 04:35:36;;;;;;;;;52.50;40.75;;;;;;;;5074308;28;45322;-75
2022/01/17 04:38:03;;;;;;;;;52.50;42.50;;;;;;;;5073772;28;45526;-75
2022/01/17 04:40:36;;;;;;;;;46.00;37.50;;;;;;;;5074945;28;45684;-75
2022/01/17 04:45:59;;;;;;;;;47.25;36.00;;;;;;;;4993245;28;45368;-76
2022/01/17 04:48:26;;;;;;;;;54.50;40.75;;;;;;;;4990142;28;45280;-75
2022/01/17 04:50:51;;;;;;;;;43.00;36.25;;;;;;;;4991268;28;47178;-75
2022/01/17 04:53:19;;;;;;;;;41.75;37.00;;;;;;;;4991518;28;45424;-76
2022/01/17 04:55:44;;;;;;;;;39.50;34.00;;;;;;;;4990912;28;45377;-76
2022/01/17 04:58:10;;;;;;;;;48.50;38.25;;;;;;;;4992455;28;45441;-75
2022/01/17 05:00:35;;;;;;;;;48.25;37.50;;;;;;;;4989732;28;45479;-75
2022/01/17 05:03:00;;;;;;;;;46.00;36.75;;;;;;;;4989986;28;45510;-75
2022/01/17 05:05:25;;;;;;;;;47.25;38.75;;;;;;;;4989984;28;45451;-75
2022/01/17 05:07:52;;;;;;;;;46.50;37.00;;;;;;;;4990007;28;45440;-75
2022/01/17 05:10:18;;;;;;;;;44.75;36.75;;;;;;;;4989016;28;46331;-75
2022/01/17 05:12:44;;;;;;;;;45.25;37.75;;;;;;;;4989668;28;45341;-74
2022/01/17 05:15:19;;;;;;;;;44.00;37.75;;;;;;;;4989607;28;45415;-75
2022/01/17 05:17:56;;;;;;;;;38.00;34.75;;;;;;;;4989614;28;45762;-75
2022/01/17 05:20:22;;;;;;;;;42.50;36.00;;;;;;;;4988695;28;46185;-75
2022/01/17 05:22:47;;;;;;;;;32.75;29.75;;;;;;;;5024308;28;45421;-75
2022/01/17 05:25:12;;;;;;;;;35.75;32.75;;;;;;;;5075541;28;45394;-74
2022/01/17 05:27:38;;;;;;;;;35.25;27.00;;;;;;;;5073344;27;45391;-75
2022/01/17 05:30:04;;;;;;;;;44.25;35.25;;;;;;;;5071509;28;47057;-75
2022/01/17 05:32:29;;;;;;;;;36.00;33.00;;;;;;;;5071419;28;45573;-75
2022/01/17 05:34:54;;;;;;;;;41.25;35.50;;;;;;;;5073002;28;45945;-75
2022/01/17 05:37:20;;;;;;;;;39.00;35.00;;;;;;;;5074850;27;45440;-73
2022/01/17 05:39:45;;;;;;;;;37.00;33.25;;;;;;;;5071320;28;46162;-75
2022/01/17 05:42:14;;;;;;;;;40.50;32.50;;;;;;;;5072394;28;45562;-75
2022/01/17 05:44:39;;;;;;;;;41.00;34.00;;;;;;;;5072158;27;45502;-74
2022/01/17 05:47:06;;;;;;;;;35.75;33.25;;;;;;;;5072893;28;45519;-75
2022/01/17 05:49:31;;;;;;;;;40.25;35.25;;;;;;;;5072608;27;46421;-75
2022/01/17 05:51:56;;;;;;;;;46.25;36.50;;;;;;;;5073603;28;45295;-75
2022/01/17 05:54:21;;;;;;;;;49.00;36.50;;;;;;;;5072084;27;45444;-75
2022/01/17 05:56:47;;;;;;;;;49.25;38.25;;;;;;;;5072341;27;45325;-75
2022/01/17 05:59:12;;;;;;;;;41.00;37.25;;;;;;;;5073739;28;47510;-75
2022/01/17 06:01:40;;;;;;;;;42.00;37.00;;;;;;;;5072959;27;45593;-76
2022/01/17 06:04:06;;;;;;;;;45.75;38.00;;;;;;;;5072585;27;45527;-75
2022/01/17 06:06:31;;;;;;;;;46.75;37.25;;;;;;;;5072684;28;45387;-76
2022/01/17 06:08:56;;;;;;;;;44.75;38.50;;;;;;;;5070501;27;46369;-75
2022/01/17 06:11:21;;;;;;;;;38.00;34.00;;;;;;;;5070823;27;45483;-76
2022/01/17 06:13:46;;;;;;;;;39.50;34.50;;;;;;;;5072717;28;45213;-75
2022/01/17 06:16:12;;;;;;;;;44.00;38.25;;;;;;;;5074276;27;45565;-79
2022/01/17 06:18:37;;;;;;;;;51.75;40.75;;;;;;;;5054998;28;47095;-79
2022/01/17 06:21:02;;;;;;;;;50.25;38.75;;;;;;;;5071859;27;45392;-77
2022/01/17 06:23:27;;;;;;;;;35.75;34.50;;;;;;;;5072510;28;45456;-77
2022/01/17 06:25:52;;;;;;;;;48.25;39.50;;;;;;;;5072851;28;45357;-78
2022/01/17 06:28:18;;;;;;;;;45.50;38.75;;;;;;;;5056968;28;47089;-78
2022/01/17 06:30:43;;;;;;;;;42.50;35.50;;;;;;;;5072287;27;45555;-77
2022/01/17 06:33:08;;;;;;;;;49.50;39.25;;;;;;;;5071490;28;45392;-78
2022/01/17 06:35:37;;;;;;;;;41.75;36.25;;;;;;;;5072315;27;45434;-77
2022/01/17 06:38:02;;;;;;;;;49.75;38.75;;;;;;;;5071477;27;45443;-80
2022/01/17 06:40:28;;;;;;;;;43.50;39.00;;;;;;;;5073038;27;45336;-79
2022/01/17 06:42:53;;;;;;;;;41.00;36.75;;;;;;;;5072863;27;45602;-79
2022/01/17 06:45:18;;;;;;;;;46.25;38.00;;;;;;;;5074374;28;45426;-78
2022/01/17 06:47:45;;;;;;;;;48.50;39.50;;;;;;;;5072925;27;46567;-78
2022/01/17 06:50:11;;;;;;;;;48.50;39.75;;;;;;;;5073459;27;45540;-79
2022/01/17 06:52:37;;;;;;;;;50.00;39.75;;;;;;;;5075427;28;45824;-78
2022/01/17 06:55:02;;;;;;;;;49.75;42.50;;;;;;;;5077016;27;45505;-78
2022/01/17 06:57:27;;;;;;;;;51.50;40.25;;;;;;;;5057140;27;45536;-79
2022/01/17 06:59:54;;;;;;;;;50.50;42.25;;;;;;;;5057125;28;45422;-78
2022/01/17 07:02:20;;;;;;;;;46.25;38.50;;;;;;;;5075651;27;45320;-79
2022/01/17 07:04:45;;;;;;;;;51.25;40.50;;;;;;;;5075856;27;45411;-75
2022/01/17 07:07:10;;;;;;;;;53.00;41.50;;;;;;;;5075911;27;47190;-73
2022/01/17 07:09:36;;;;;;;;;53.00;43.50;;;;;;;;5073779;27;45454;-73
2022/01/17 07:12:02;;;;;;;;;53.00;42.00;;;;;;;;5071436;27;46011;-74
2022/01/17 07:14:27;;;;;;;;;46.25;37.25;;;;;;;;5070894;27;45434;-74
2022/01/17 07:16:53;;;;;;;;;41.25;37.25;;;;;;;;5072809;27;45451;-75
2022/01/17 07:19:18;;;;;;;;;49.00;37.75;;;;;;;;5075379;27;45473;-74
2022/01/17 07:21:44;;;;;;;;;49.00;38.75;;;;;;;;5074074;27;45713;-74
2022/01/17 07:24:09;;;;;;;;;45.25;38.25;;;;;;;;5076240;28;45507;-74
2022/01/17 07:26:34;;;;;;;;;48.00;37.25;;;;;;;;5076795;27;46577;-75
2022/01/17 07:29:00;;;;;;;;;45.00;37.25;;;;;;;;5074038;27;45469;-73
2022/01/17 07:31:25;;;;;;;;;48.00;39.50;;;;;;;;5074290;27;45418;-76
2022/01/17 07:33:51;;;;;;;;;52.50;41.00;;;;;;;;5074150;27;45500;-73
2022/01/17 07:36:19;;;;;;;;;44.50;39.00;;;;;;;;5072358;28;45403;-73
2022/01/17 07:38:45;;;;;;;;;52.50;40.00;;;;;;;;5071453;27;45429;-72
2022/01/17 07:41:11;;;;;;;;;59.75;46.50;;;;;;;;5072884;27;45464;-73
2022/01/17 07:43:37;;;;;;;;;46.25;41.00;;;;;;;;5074090;27;45355;-73
2022/01/17 07:46:05;;;;;;;;;49.50;40.75;;;;;;;;5073757;27;47013;-72
2022/01/17 07:51:15;;;;;;;;;46.25;39.00;;;;;;;;5074050;28;45543;-73
2022/01/17 07:53:43;;;;;;;;;45.50;37.25;;;;;;;;5071758;27;45434;-74
2022/01/17 07:56:09;;;;;;;;;50.25;39.00;;;;;;;;5071746;27;47025;-74
2022/01/17 07:58:34;;;;;;;;;49.75;41.00;;;;;;;;5073670;28;45254;-73
2022/01/17 08:00:59;;;;;;;;;52.75;42.75;;;;;;;;5056166;28;45301;-73
2022/01/17 08:03:24;;;;;;;;;42.25;38.25;;;;;;;;5056254;27;45501;-72
2022/01/17 08:05:50;;;;;;;;;54.00;42.75;;;;;;;;5071286;27;47175;-74
2022/01/17 08:08:15;;;;;;;;;37.75;30.50;;;;;;;;5068460;27;45549;-74
2022/01/17 08:10:41;;;;;;;;;47.50;38.50;;;;;;;;5072577;27;45221;-73
2022/01/17 08:13:06;;;;;;;;;50.75;40.00;;;;;;;;5076175;28;45495;-73
2022/01/17 08:15:31;;;;;;;;;51.75;40.00;;;;;;;;5072276;27;45380;-73
2022/01/17 08:17:57;;;;;;;;;51.25;40.25;;;;;;;;5073227;27;45558;-73
2022/01/17 08:20:22;;;;;;;;;48.00;40.00;;;;;;;;5073123;28;45557;-73
2022/01/17 08:22:48;;;;;;;;;43.50;36.75;;;;;;;;5072843;27;45419;-73
2022/01/17 08:25:13;;;;;;;;;48.25;37.50;;;;;;;;5074080;27;45393;-72
2022/01/17 08:27:39;;;;;;;;;54.50;43.75;;;;;;;;5073046;27;45500;-72
2022/01/17 08:30:05;;;;;;;;;49.50;39.25;;;;;;;;5072567;28;45378;-73
2022/01/17 08:32:32;;;;;;;;;47.50;38.25;;;;;;;;5073744;27;45531;-74
2022/01/17 08:34:57;;;;;;;;;58.25;42.50;;;;;;;;5073241;27;45310;-74
2022/01/17 08:37:23;;;;;;;;;42.50;37.50;;;;;;;;5074931;28;45371;-73
2022/01/17 08:39:48;;;;;;;;;44.50;38.75;;;;;;;;5055289;28;45422;-73
2022/01/17 08:42:13;;;;;;;;;45.00;39.00;;;;;;;;5071856;27;45202;-74
2022/01/17 08:44:39;;;;;;;;;45.50;37.75;;;;;;;;5070482;27;46071;-74
2022/01/17 08:47:04;;;;;;;;;52.75;43.00;;;;;;;;5072781;27;45347;-73
2022/01/17 08:49:29;;;;;;;;;46.25;38.50;;;;;;;;5073704;28;45194;-73
2022/01/17 08:51:55;;;;;;;;;47.75;40.50;;;;;;;;5073594;28;45424;-73
2022/01/17 08:54:20;;;;;;;;;51.00;40.25;;;;;;;;5071930;27;45650;-73
2022/01/17 08:56:45;;;;;;;;;53.00;42.00;;;;;;;;5071438;27;45451;-74
2022/01/17 08:59:10;;;;;;;;;49.25;40.25;;;;;;;;5071260;28;45243;-73
2022/01/17 09:01:35;;;;;;;;;46.50;39.75;;;;;;;;5071653;27;45268;-73
2022/01/17 09:04:01;;;;;;;;;49.50;38.00;;;;;;;;5071590;28;46492;-73
2022/01/17 09:06:26;;;;;;;;;47.75;38.25;;;;;;;;5071154;27;45554;-73
2022/01/17 09:08:51;;;;;;;;;43.75;38.75;;;;;;;;5071339;27;45434;-73
2022/01/17 09:11:17;;;;;;;;;53.75;39.75;;;;;;;;5071294;28;45400;-72
2022/01/17 09:13:42;;;;;;;;;31.75;27.75;;;;;;;;5071754;28;46380;-72
2022/01/17 09:16:08;;;;;;;;;37.75;31.00;;;;;;;;5072799;27;45446;-72
2022/01/17 09:18:33;;;;;;;;;39.25;31.75;;;;;;;;5070829;27;45347;-74
2022/01/17 09:20:59;;;;;;;;;38.25;34.25;;;;;;;;5071495;28;45460;-73
2022/01/17 09:23:25;;;;;;;;;31.25;25.75;;;;;;;;5069614;27;46407;-73
2022/01/17 09:25:51;;;;;;;;;31.25;30.50;;;;;;;;5070176;28;45415;-74
2022/01/17 09:28:16;;;;;;;;;33.75;31.50;;;;;;;;5073770;28;45432;-72
2022/01/17 09:30:41;;;;;;;;;38.25;32.00;;;;;;;;5071454;28;45810;-73
2022/01/17 09:33:07;;;;;;;;;37.00;31.25;;;;;;;;5071374;28;45558;-72
2022/01/17 09:35:33;;;;;;;;;28.50;25.00;;;;;;;;5070821;27;45417;-74
2022/01/17 09:37:58;;;;;;;;;28.50;25.75;;;;;;;;5071926;28;45414;-74
2022/01/17 09:40:24;;;;;;;;;35.75;29.75;;;;;;;;5072464;27;45359;-73
2022/01/17 09:42:49;;;;;;;;;30.00;27.25;;;;;;;;5069371;28;45968;-74
2022/01/17 09:45:17;;;;;;;;;26.75;26.25;;;;;;;;5071467;27;45402;-73
2022/01/17 09:47:42;;;;;;;;;39.50;33.50;;;;;;;;5071179;27;45337;-73
2022/01/17 09:50:09;;;;;;;;;31.75;29.75;;;;;;;;5071282;27;45326;-73
2022/01/17 09:52:36;;;;;;;;;32.25;30.50;;;;;;;;5071600;28;46464;-73
2022/01/17 09:55:08;;;;;;;;;42.75;34.75;;;;;;;;5070437;28;45378;-74
2022/01/17 09:57:53;;;;;;;;;36.25;31.75;;;;;;;;5070661;28;45513;-73
2022/01/17 10:00:20;;;;;;;;;37.00;31.50;;;;;;;;5071020;27;45423;-74
2022/01/17 10:02:45;;;;;;;;;36.00;32.75;;;;;;;;5069171;27;46051;-73
2022/01/17 10:05:11;;;;;;;;;28.25;26.00;;;;;;;;5069360;28;45450;-72
2022/01/17 10:07:50;;;;;;;;;41.50;35.25;;;;;;;;5071296;27;49428;-73
2022/01/17 10:10:15;;;;;;;;;42.25;32.75;;;;;;;;5071228;27;45501;-73
2022/01/17 10:12:40;;;;;;;;;35.00;34.50;;;;;;;;5070686;27;46591;-72
2022/01/17 10:15:07;;;;;;;;;49.00;36.00;;;;;;;;5070360;28;45276;-74
2022/01/17 10:17:46;;;;;;;;;29.75;29.75;;;;;;;;5070996;28;45433;-74
2022/01/17 10:20:16;;;;;;;;;37.50;33.25;;;;;;;;5073500;27;45317;-74
2022/01/17 10:22:55;;;;;;;;;39.00;34.50;;;;;;;;5074089;27;46079;-73
2022/01/17 10:28:19;;;;;;;;;37.25;34.25;;;;;;;;5074431;27;45433;-73
2022/01/17 10:31:02;;;;;;;;;44.00;36.50;;;;;;;;5072572;27;45427;-74
2022/01/17 10:36:14;;;;;;;;;46.50;35.75;;;;;;;;5074220;27;45401;-73
2022/01/17 10:38:40;;;;;;;;;38.75;33.00;;;;;;;;5073801;27;45568;-73
2022/01/17 10:41:05;;;;;;;;;42.50;37.00;;;;;;;;5071392;27;45602;-74
2022/01/17 10:43:35;;;;;;;;;40.75;32.25;;;;;;;;5068119;27;46787;-74
2022/01/17 10:46:01;;;;;;;;;37.75;31.75;;;;;;;;5072919;27;45309;-73
2022/01/17 10:48:28;;;;;;;;;41.75;32.50;;;;;;;;5074186;28;45507;-74
2022/01/17 10:50:53;;;;;;;;;45.50;36.75;;;;;;;;5073445;27;45491;-72
2022/01/17 10:53:18;;;;;;;;;42.00;34.00;;;;;;;;5073449;27;46208;-72
2022/01/17 10:55:48;;;;;;;;;37.00;33.75;;;;;;;;5073768;27;45284;-74
2022/01/17 10:58:16;;;;;;;;;45.75;35.75;;;;;;;;5075548;27;45359;-74
2022/01/17 11:00:43;;;;;;;;;40.25;33.75;;;;;;;;5072626;28;45674;-74
2022/01/17 11:03:11;;;;;;;;;43.00;34.00;;;;;;;;5072976;27;46420;-76
2022/01/17 11:05:37;;;;;;;;;42.25;35.25;;;;;;;;5073451;27;45261;-76
2022/01/17 11:08:02;;;;;;;;;42.25;35.75;;;;;;;;5073309;28;45369;-73
2022/01/17 11:10:29;;;;;;;;;43.00;34.00;;;;;;;;5073884;28;45529;-78
2022/01/17 11:12:56;;;;;;;;;40.75;35.75;;;;;;;;5054863;28;47173;-75
2022/01/17 11:15:22;;;;;;;;;41.75;33.75;;;;;;;;5054170;28;45258;-71
2022/01/17 11:17:50;;;;;;;;;40.75;35.25;;;;;;;;5067897;28;45884;-73
2022/01/17 11:20:16;;;;;;;;;41.25;35.50;;;;;;;;5071048;27;45521;-72
2022/01/17 11:22:43;;;;;;;;;53.00;41.50;;;;;;;;5070641;28;45463;-72
2022/01/17 11:25:10;;;;;;;;;39.25;34.25;;;;;;;;5072152;28;45483;-73
2022/01/17 11:27:35;;;;;;;;;45.25;35.75;;;;;;;;5071928;27;45431;-74
2022/01/17 11:30:01;;;;;;;;;46.75;37.00;;;;;;;;5071749;27;45343;-74
2022/01/17 11:32:26;;;;;;;;;39.25;35.00;;;;;;;;5055156;28;47068;-72
2022/01/17 11:34:53;;;;;;;;;42.00;36.25;;;;;;;;5071772;28;45516;-74
2022/01/17 11:37:18;;;;;;;;;50.75;37.25;;;;;;;;5070231;27;45391;-73
2022/01/17 11:39:45;;;;;;;;;37.25;30.00;;;;;;;;5072154;28;45504;-73
2022/01/17 11:42:29;;;;;;;;;47.25;37.75;;;;;;;;5065998;28;46574;-74
2022/01/17 11:44:54;;;;;;;;;36.00;32.75;;;;;;;;5064643;28;45516;-73
2022/01/17 11:47:40;;;;;;;;;43.25;35.75;;;;;;;;5073226;28;45543;-73
2022/01/17 11:50:24;;;;;;;;;41.00;34.75;;;;;;;;5061243;28;45619;-74
2022/01/17 11:52:49;;;;;;;;;39.00;32.75;;;;;;;;5071457;27;46663;-75
2022/01/17 11:55:34;;;;;;;;;47.00;38.00;;;;;;;;5074196;27;46838;-74
2022/01/17 11:58:19;;;;;;;;;46.75;39.00;;;;;;;;5074300;27;45489;-73
2022/01/17 12:00:45;;;;;;;;;46.50;36.25;;;;;;;;5070939;28;45334;-73
2022/01/17 12:03:20;;;;;;;;;48.00;37.00;;;;;;;;5070519;28;45856;-75
2022/01/17 12:05:46;;;;;;;;;44.75;36.00;;;;;;;;5072252;28;45700;-73
2022/01/17 12:08:14;;;;;;;;;43.00;37.75;;;;;;;;5072743;28;45431;-76
2022/01/17 12:10:41;;;;;;;;;43.00;36.75;;;;;;;;5072764;28;45390;-75
2022/01/17 12:13:18;;;;;;;;;44.75;37.25;;;;;;;;5074268;28;46187;-74
2022/01/17 12:16:20;;;;;;;;;38.25;32.25;;;;;;;;5072228;28;45354;-75
2022/01/17 12:18:57;;;;;;;;;47.00;37.75;;;;;;;;5072562;27;45324;-76
2022/01/17 12:21:28;;;;;;;;;51.00;38.50;;;;;;;;5072150;28;45288;-75
2022/01/17 12:24:12;;;;;;;;;42.50;35.00;;;;;;;;5072123;28;47055;-75
2022/01/17 12:26:37;;;;;;;;;54.00;42.25;;;;;;;;5072241;27;45273;-76
2022/01/17 12:29:03;;;;;;;;;55.75;41.50;;;;;;;;5071610;27;45292;-74
2022/01/17 12:31:44;;;;;;;;;52.25;41.50;;;;;;;;5073291;27;45338;-76
2022/01/17 12:34:23;;;;;;;;;60.25;46.50;;;;;;;;5074668;27;47115;-72
2022/01/17 12:36:49;;;;;;;;;52.00;42.75;;;;;;;;5072435;27;45334;-74
2022/01/17 12:39:20;;;;;;;;;46.75;42.25;;;;;;;;5070641;27;45343;-74
2022/01/17 12:41:48;;;;;;;;;54.00;40.25;;;;;;;;5069463;28;45334;-74
2022/01/17 12:44:18;;;;;;;;;56.25;44.50;;;;;;;;5072446;27;46170;-73
2022/01/17 12:46:45;;;;;;;;;51.75;41.25;;;;;;;;5071951;27;45439;-73
2022/01/17 12:49:11;;;;;;;;;53.50;40.50;;;;;;;;5073647;28;45337;-73
2022/01/17 12:51:39;;;;;;;;;50.00;39.50;;;;;;;;5072208;28;45408;-73
2022/01/17 12:54:08;;;;;;;;;53.50;43.00;;;;;;;;5071983;28;46125;-74
2022/01/17 12:56:33;;;;;;;;;52.00;42.00;;;;;;;;5071739;28;45585;-74
2022/01/17 12:59:00;;;;;;;;;55.75;43.25;;;;;;;;5071900;28;45465;-74
2022/01/17 13:01:25;;;;;;;;;52.00;41.50;;;;;;;;5072843;28;45563;-73
2022/01/17 13:03:51;;;;;;;;;48.25;38.75;;;;;;;;5070814;27;45674;-74
2022/01/17 13:06:18;;;;;;;;;54.50;41.75;;;;;;;;5071424;27;45505;-74
2022/01/17 13:08:48;;;;;;;;;53.00;41.50;;;;;;;;5071484;27;45559;-73
2022/01/17 13:11:18;;;;;;;;;47.75;40.25;;;;;;;;5071323;27;45442;-73
2022/01/17 13:13:52;;;;;;;;;54.25;41.75;;;;;;;;5070724;27;46193;-73
2022/01/17 13:16:17;;;;;;;;;57.00;44.25;;;;;;;;5073263;27;45486;-73
2022/01/17 13:18:43;;;;;;;;;52.50;41.75;;;;;;;;5069444;27;45302;-74
2022/01/17 13:21:08;;;;;;;;;51.00;41.25;;;;;;;;5069224;27;45268;-74
2022/01/17 13:23:38;;;;;;;;;52.25;40.50;;;;;;;;5070897;27;45672;-74
2022/01/17 13:26:04;;;;;;;;;55.50;43.00;;;;;;;;5071369;27;45327;-73
2022/01/17 13:28:29;;;;;;;;;55.00;42.75;;;;;;;;5072730;28;45334;-74
2022/01/17 13:30:54;;;;;;;;;49.50;39.00;;;;;;;;5072812;27;45487;-74
2022/01/17 13:33:19;;;;;;;;;49.50;39.25;;;;;;;;5070797;28;46391;-74
2022/01/17 13:35:46;;;;;;;;;51.50;36.75;;;;;;;;5071858;27;45378;-73
2022/01/17 13:38:22;;;;;;;;;46.75;37.25;;;;;;;;5071452;27;45403;-72
2022/01/17 13:40:53;;;;;;;;;43.75;36.00;;;;;;;;5052709;28;45351;-73
2022/01/17 13:43:18;;;;;;;;;39.50;34.25;;;;;;;;5072837;28;47706;-73
2022/01/17 13:45:43;;;;;;;;;37.50;28.75;;;;;;;;5071016;28;45441;-74
2022/01/17 13:48:34;;;;;;;;;44.25;37.50;;;;;;;;5070806;28;45318;-74
2022/01/17 13:51:02;;;;;;;;;48.75;37.00;;;;;;;;5066737;27;45504;-74
2022/01/17 13:53:32;;;;;;;;;47.25;39.25;;;;;;;;5071472;28;46465;-74
2022/01/17 13:55:58;;;;;;;;;45.75;38.00;;;;;;;;5073780;27;45487;-75
2022/01/17 13:58:26;;;;;;;;;41.00;36.75;;;;;;;;5076876;27;45390;-73
2022/01/17 14:00:53;;;;;;;;;39.50;33.75;;;;;;;;5074145;27;45609;-74
2022/01/17 14:03:20;;;;;;;;;34.75;29.25;;;;;;;;5074187;27;46098;-74
2022/01/17 14:05:46;;;;;;;;;47.50;35.25;;;;;;;;5074622;27;45489;-73
2022/01/17 14:08:13;;;;;;;;;42.25;34.00;;;;;;;;5075091;27;45286;-74
2022/01/17 14:10:57;;;;;;;;;45.75;38.00;;;;;;;;5073883;28;45732;-74
2022/01/17 14:13:22;;;;;;;;;37.75;34.50;;;;;;;;5070542;27;46527;-75
2022/01/17 14:15:48;;;;;;;;;37.00;32.00;;;;;;;;5074522;27;45437;-74
2022/01/17 14:18:14;;;;;;;;;38.50;31.75;;;;;;;;5073936;27;45244;-74
2022/01/17 14:20:40;;;;;;;;;37.00;32.75;;;;;;;;5074049;28;45371;-74
2022/01/17 14:23:06;;;;;;;;;40.25;32.75;;;;;;;;5073553;27;47514;-74
2022/01/17 14:25:35;;;;;;;;;33.50;32.50;;;;;;;;5075421;27;45473;-74
2022/01/17 14:28:06;;;;;;;;;38.00;31.25;;;;;;;;5076594;28;45313;-73
2022/01/17 14:30:32;;;;;;;;;33.25;30.25;;;;;;;;5074844;27;45459;-74
2022/01/17 14:33:13;;;;;;;;;40.00;33.25;;;;;;;;5075450;27;47074;-74
2022/01/17 14:35:38;;;;;;;;;38.00;33.00;;;;;;;;5073200;27;45491;-74